KBFM

Mobile Downtown Airport

Mobile, Alabama, USA
METAR KBFM 171153Z AUTO 33006KT 10SM CLR 10/09 A3026 RMK AO2 SLP246 T01000089 10100 20089 53008
Observed Flight Rules
Dec-17 @ 11:53 UTC (13 minutes ago) Visual Flight Rules
Wind Visibility Clouds
330° at 6 knots 10 miles
  • Clear skies
Temperatures Readings
Current 10°C / 50°F
Dewpoint 9°C / 48°F
Humidity 94%
Altimeter 30.26" Hg
Pressure 1024.6 hPa
Elevation 20
METAR KBFM 171153Z AUTO 33006KT 10SM CLR 10/09 A3026 RMK AO2 SLP246 T01000089 10100 20089 53008
Observed Flight Rules
Dec-17 @ 11:53 UTC
(13 minutes ago)
VFR
Wind Visibility
330° at 6 knots 10 miles
Clouds
  • Clear skies
Temperature Dewpoint
10°C / 50°F 9°C / 48°F
Humidity Altimeter Pressure
94% 30.26" Hg 1024.6 hPa